createdAt,value
2023-03-27T00:00:44.509Z,86.8414
2023-03-27T00:01:46.600Z,86.8391
2023-03-27T00:02:48.813Z,86.8306
2023-03-27T00:04:52.999Z,86.8379
2023-03-27T00:05:55.038Z,86.8504
2023-03-27T00:06:57.078Z,86.8634
2023-03-27T00:07:59.239Z,86.8643
2023-03-27T00:09:01.248Z,86.8633
2023-03-27T00:10:03.415Z,86.8488
2023-03-27T00:11:05.529Z,86.8496
2023-03-27T00:12:07.629Z,86.8486
2023-03-27T00:13:09.644Z,86.8550
2023-03-27T00:14:11.696Z,86.8482
2023-03-27T00:15:13.696Z,86.8442
2023-03-27T00:16:15.857Z,86.8407
2023-03-27T00:17:17.956Z,86.8377
2023-03-27T00:18:19.982Z,86.8295
2023-03-27T00:19:22.455Z,86.8255
2023-03-27T00:20:24.818Z,86.8260
2023-03-27T00:21:26.835Z,86.8233
2023-03-27T00:22:28.878Z,86.8177
2023-03-27T00:23:30.920Z,86.8064
2023-03-27T00:24:32.925Z,86.7951
2023-03-27T00:25:35.003Z,86.7805
2023-03-27T00:26:37.088Z,86.7693
2023-03-27T00:27:39.133Z,86.7548
2023-03-27T00:28:41.192Z,86.7530
2023-03-27T00:29:43.254Z,86.7532
2023-03-27T00:30:45.284Z,86.7597
2023-03-27T00:32:49.260Z,86.7675
2023-03-27T00:33:51.285Z,86.7617
2023-03-27T00:34:53.345Z,86.7609
2023-03-27T00:35:55.357Z,86.7501
2023-03-27T00:36:57.417Z,86.7425
2023-03-27T00:37:59.408Z,86.7326
2023-03-27T00:39:01.477Z,86.7270
2023-03-27T00:41:05.435Z,86.7093
2023-03-27T00:42:07.444Z,86.7089
2023-03-27T00:43:09.500Z,86.7044
2023-03-27T00:44:11.552Z,86.7159
2023-03-27T00:45:13.591Z,86.7183
2023-03-27T00:46:15.700Z,86.7309
2023-03-27T00:47:17.895Z,86.7314
2023-03-27T00:48:19.880Z,86.7291
2023-03-27T00:50:23.853Z,86.7234
2023-03-27T00:52:27.825Z,86.7379
2023-03-27T00:53:29.915Z,86.7557
2023-03-27T00:54:31.929Z,86.7634
2023-03-27T00:55:34.022Z,86.7587
2023-03-27T00:56:36.070Z,86.7605
2023-03-27T00:57:38.102Z,86.7744
2023-03-27T00:58:40.131Z,86.7865
2023-03-27T00:59:42.207Z,86.8020
2023-03-27T01:00:44.232Z,86.8157
2023-03-27T01:01:46.335Z,86.8368
2023-03-27T01:02:48.451Z,86.8568
2023-03-27T01:03:50.642Z,86.8761
2023-03-27T01:04:52.714Z,86.8990
2023-03-27T01:05:54.771Z,86.9245
2023-03-27T01:08:01.267Z,86.9562
2023-03-27T01:08:59.405Z,86.9932
2023-03-27T01:10:01.416Z,87.0161
2023-03-27T01:12:05.412Z,87.0548
2023-03-27T01:14:09.328Z,87.0961
2023-03-27T01:15:11.402Z,87.1215
2023-03-27T01:16:13.522Z,87.1434
2023-03-27T01:18:17.502Z,87.1941
2023-03-27T01:19:19.491Z,87.2180
2023-03-27T01:20:21.570Z,87.2369
2023-03-27T01:21:23.600Z,87.2606
2023-03-27T01:22:25.707Z,87.2836
2023-03-27T01:23:35.887Z,87.2949
2023-03-27T01:24:31.289Z,87.3103
2023-03-27T01:25:33.408Z,87.3300
2023-03-27T01:26:37.020Z,87.3489
2023-03-27T01:27:39.309Z,87.3603
2023-03-27T01:28:41.390Z,87.3693
2023-03-27T01:29:43.404Z,87.3843
2023-03-27T01:30:45.494Z,87.4029
2023-03-27T01:31:47.553Z,87.4034
2023-03-27T01:32:49.609Z,87.4058
2023-03-27T01:33:51.716Z,87.3993
2023-03-27T01:35:01.574Z,87.3986
2023-03-27T01:35:57.394Z,87.4022
2023-03-27T01:36:59.487Z,87.4034
2023-03-27T01:38:01.617Z,87.4031
2023-03-27T01:39:03.687Z,87.4029
2023-03-27T01:40:05.752Z,87.4065
2023-03-27T01:41:07.840Z,87.4043
2023-03-27T01:42:09.921Z,87.4185
2023-03-27T01:43:12.017Z,87.4366
2023-03-27T01:44:14.123Z,87.4482
2023-03-27T01:45:16.144Z,87.4601
2023-03-27T01:46:18.261Z,87.4701
2023-03-27T01:47:20.298Z,87.4735
2023-03-27T01:48:22.398Z,87.4777
2023-03-27T01:50:26.390Z,87.4796
2023-03-27T01:51:28.557Z,87.4846
2023-03-27T01:52:30.593Z,87.4875
2023-03-27T01:53:32.639Z,87.4945
2023-03-27T01:54:34.810Z,87.4974
2023-03-27T01:55:36.911Z,87.4995
2023-03-27T01:56:39.022Z,87.5013
2023-03-27T01:57:49.249Z,87.5020
2023-03-27T01:58:44.633Z,87.5017
2023-03-27T01:59:46.726Z,87.4907
2023-03-27T02:01:50.719Z,87.4849
2023-03-27T02:02:52.834Z,87.4794
2023-03-27T02:03:54.882Z,87.4690
2023-03-27T02:04:57.012Z,87.4654
2023-03-27T02:05:59.102Z,87.4628
2023-03-27T02:07:01.144Z,87.4633
2023-03-27T02:08:03.257Z,87.4608
2023-03-27T02:09:05.318Z,87.4560
2023-03-27T02:10:07.436Z,87.4507
2023-03-27T02:11:09.525Z,87.4449
2023-03-27T02:12:11.631Z,87.4354
2023-03-27T02:13:13.642Z,87.4316
2023-03-27T02:14:15.750Z,87.4314
2023-03-27T02:15:23.339Z,87.4317
2023-03-27T02:16:21.522Z,87.4433
2023-03-27T02:17:23.852Z,87.4467
2023-03-27T02:18:25.927Z,87.4521
2023-03-27T02:19:28.059Z,87.4507
2023-03-27T02:20:30.089Z,87.4585
2023-03-27T02:21:32.194Z,87.4620
2023-03-27T02:22:37.426Z,87.4673
2023-03-27T02:23:35.873Z,87.4771
2023-03-27T02:25:39.954Z,87.4777
2023-03-27T02:26:41.989Z,87.4755
2023-03-27T02:27:44.153Z,87.4751
2023-03-27T02:28:46.243Z,87.4727
2023-03-27T02:29:48.366Z,87.4690
2023-03-27T02:31:05.771Z,87.4701
2023-03-27T02:31:54.018Z,87.4781
2023-03-27T02:32:56.068Z,87.4826
2023-03-27T02:33:58.154Z,87.4899
2023-03-27T02:35:00.251Z,87.4924
2023-03-27T02:36:02.311Z,87.4943
2023-03-27T02:37:04.418Z,87.4956
2023-03-27T02:38:06.446Z,87.4963
2023-03-27T02:39:08.596Z,87.5059
2023-03-27T02:40:10.709Z,87.5148
2023-03-27T02:41:12.808Z,87.5230
2023-03-27T02:42:14.922Z,87.5189
2023-03-27T02:43:16.970Z,87.5226
2023-03-27T02:45:20.970Z,87.5252
2023-03-27T02:47:24.992Z,87.5404
2023-03-27T02:48:27.074Z,87.5495
2023-03-27T02:49:29.194Z,87.5529
2023-03-27T02:50:31.310Z,87.5595
2023-03-27T02:51:33.386Z,87.5719
2023-03-27T02:52:35.496Z,87.5799
2023-03-27T02:53:37.546Z,87.5887
2023-03-27T02:54:39.656Z,87.6062
2023-03-27T02:55:41.759Z,87.6097
2023-03-27T02:56:43.880Z,87.6178
2023-03-27T02:57:51.807Z,87.6182
2023-03-27T02:58:49.588Z,87.6302
2023-03-27T02:59:51.665Z,87.6338
2023-03-27T03:00:53.783Z,87.6432
2023-03-27T03:01:55.995Z,87.6464
2023-03-27T03:02:58.098Z,87.6437
2023-03-27T03:04:00.289Z,87.6445
2023-03-27T03:05:02.456Z,87.6426
2023-03-27T03:06:04.489Z,87.6480
2023-03-27T03:07:06.601Z,87.6496
2023-03-27T03:08:08.668Z,87.6564
2023-03-27T03:09:10.792Z,87.6583
2023-03-27T03:10:12.822Z,87.6668
2023-03-27T03:11:15.097Z,87.6761
2023-03-27T03:12:17.144Z,87.6789
2023-03-27T03:13:19.270Z,87.6946
2023-03-27T03:14:21.370Z,87.6958
2023-03-27T03:15:23.507Z,87.6936
2023-03-27T03:16:25.609Z,87.6940
2023-03-27T03:17:27.661Z,87.7073
2023-03-27T03:18:29.721Z,87.7163
2023-03-27T03:19:31.830Z,87.7177
2023-03-27T03:20:33.892Z,87.7224
2023-03-27T03:21:35.969Z,87.7258
2023-03-27T03:22:38.045Z,87.7280
2023-03-27T03:23:40.094Z,87.7318
2023-03-27T03:25:44.190Z,87.7365
2023-03-27T03:26:46.211Z,87.7462
2023-03-27T03:27:48.521Z,87.7514
2023-03-27T03:29:00.367Z,87.7561
2023-03-27T03:29:54.157Z,87.7696
2023-03-27T03:30:56.668Z,87.7717
2023-03-27T03:31:59.166Z,87.7749
2023-03-27T03:33:01.515Z,87.7791
2023-03-27T03:34:03.641Z,87.7766
2023-03-27T03:35:05.782Z,87.7770
2023-03-27T03:36:07.943Z,87.7845
2023-03-27T03:38:11.968Z,87.7773
2023-03-27T03:40:15.973Z,87.7711
2023-03-27T03:41:18.089Z,87.7648
2023-03-27T03:42:22.312Z,87.7624
2023-03-27T03:43:20.772Z,87.7656
2023-03-27T03:44:22.887Z,87.7611
2023-03-27T03:45:24.953Z,87.7568
2023-03-27T03:46:27.194Z,87.7481
2023-03-27T03:47:29.238Z,87.7323
2023-03-27T03:48:31.370Z,87.7246
2023-03-27T03:49:33.526Z,87.7230
2023-03-27T03:50:35.558Z,87.7230
2023-03-27T03:51:37.666Z,87.7213
2023-03-27T03:52:39.711Z,87.7254
2023-03-27T03:54:44.966Z,87.7470
2023-03-27T03:55:44.455Z,87.7524
2023-03-27T03:56:46.636Z,87.7590
2023-03-27T03:57:48.809Z,87.7617
2023-03-27T03:58:50.954Z,87.7614
2023-03-27T03:59:52.982Z,87.7613
2023-03-27T04:00:55.310Z,87.7612
2023-03-27T04:01:57.573Z,87.7658
2023-03-27T04:02:59.863Z,87.7624
2023-03-27T04:04:01.911Z,87.7742
2023-03-27T04:05:08.697Z,87.7728
2023-03-27T04:06:07.599Z,87.7802
2023-03-27T04:07:09.731Z,87.7784
2023-03-27T04:08:11.762Z,87.7815
2023-03-27T04:09:13.879Z,87.7692
2023-03-27T04:10:16.022Z,87.7654
2023-03-27T04:15:25.797Z,87.7326
2023-03-27T04:16:27.994Z,87.7160
2023-03-27T04:17:30.191Z,87.7058
2023-03-27T04:18:32.405Z,87.6974
2023-03-27T04:19:34.813Z,87.6839
2023-03-27T04:20:36.935Z,87.6785
2023-03-27T04:21:39.030Z,87.6734
2023-03-27T04:22:41.085Z,87.6599
2023-03-27T04:23:43.194Z,87.6436
2023-03-27T04:24:45.313Z,87.6415
2023-03-27T04:25:47.395Z,87.6507
2023-03-27T04:26:49.512Z,87.6662
2023-03-27T04:27:51.612Z,87.6749
2023-03-27T04:29:55.661Z,87.7003
2023-03-27T04:30:57.986Z,87.7039
2023-03-27T04:32:00.669Z,87.6889
2023-03-27T04:33:02.850Z,87.6730
2023-03-27T04:34:04.355Z,87.6505
2023-03-27T04:35:06.462Z,87.6153
2023-03-27T04:36:08.743Z,87.5896
2023-03-27T04:37:10.891Z,87.5763
2023-03-27T04:38:12.952Z,87.5648
2023-03-27T04:39:15.130Z,87.5542
2023-03-27T04:40:17.253Z,87.5502
2023-03-27T04:41:19.355Z,87.5509
2023-03-27T04:42:21.442Z,87.5584
2023-03-27T04:43:23.542Z,87.5633
2023-03-27T04:44:25.676Z,87.5684
2023-03-27T04:45:27.733Z,87.5892
2023-03-27T04:46:29.937Z,87.6119
2023-03-27T04:47:32.028Z,87.6356
2023-03-27T04:48:34.222Z,87.6566
2023-03-27T04:49:36.390Z,87.6774
2023-03-27T04:50:38.437Z,87.6976
2023-03-27T04:51:40.534Z,87.7171
2023-03-27T04:52:42.601Z,87.7183
2023-03-27T04:54:46.882Z,87.7411
2023-03-27T04:55:48.992Z,87.7596
2023-03-27T04:56:51.122Z,87.7765
2023-03-27T04:57:53.240Z,87.7895
2023-03-27T04:58:55.318Z,87.7997
2023-03-27T04:59:57.400Z,87.8140
2023-03-27T05:00:59.767Z,87.8213
2023-03-27T05:03:04.773Z,87.8502
2023-03-27T05:05:09.265Z,87.8538
2023-03-27T05:06:11.492Z,87.8424
2023-03-27T05:07:13.902Z,87.8216
2023-03-27T05:08:16.147Z,87.8089
2023-03-27T05:09:18.302Z,87.7952
2023-03-27T05:10:21.690Z,87.7843
2023-03-27T05:11:24.325Z,87.7786
2023-03-27T05:12:26.603Z,87.7729
2023-03-27T05:13:29.049Z,87.7719
2023-03-27T05:14:31.246Z,87.7614
2023-03-27T05:15:33.441Z,87.7428
2023-03-27T05:16:35.907Z,87.7213
2023-03-27T05:17:38.198Z,87.6926
2023-03-27T05:18:41.817Z,87.6555
2023-03-27T05:19:44.332Z,87.6278
2023-03-27T05:20:46.731Z,87.6009
2023-03-27T05:21:49.256Z,87.5861
2023-03-27T05:22:51.505Z,87.5864
2023-03-27T05:23:53.794Z,87.6030
2023-03-27T05:24:56.095Z,87.6265
2023-03-27T05:26:00.676Z,87.6545
2023-03-27T05:26:58.760Z,87.6842
2023-03-27T05:28:00.949Z,87.7100
2023-03-27T05:29:03.119Z,87.7417
2023-03-27T05:30:05.279Z,87.7733
2023-03-27T05:31:07.525Z,87.7969
2023-03-27T05:32:10.243Z,87.8230
2023-03-27T05:33:12.387Z,87.8509
2023-03-27T05:35:16.592Z,87.9114
2023-03-27T05:36:18.905Z,87.9298
2023-03-27T05:37:20.978Z,87.9365
2023-03-27T05:38:23.093Z,87.9305
2023-03-27T05:39:25.260Z,87.9044
2023-03-27T05:40:27.502Z,87.8494
2023-03-27T05:41:29.823Z,87.7916
2023-03-27T05:42:31.934Z,87.7305
2023-03-27T05:45:38.019Z,87.5115
2023-03-27T05:46:40.183Z,87.4462
2023-03-27T05:47:42.301Z,87.3802
2023-03-27T05:48:44.386Z,87.3097
2023-03-27T05:49:46.496Z,87.2435
2023-03-27T05:50:48.694Z,87.1838
2023-03-27T05:51:50.751Z,87.1231
2023-03-27T05:52:52.831Z,87.0796
2023-03-27T05:53:55.017Z,87.0364
2023-03-27T05:54:57.089Z,87.0051
2023-03-27T05:56:02.841Z,86.9817
2023-03-27T05:57:00.947Z,86.9776
2023-03-27T05:58:03.066Z,86.9734
2023-03-27T05:59:05.112Z,86.9816
2023-03-27T06:00:07.219Z,86.9915
2023-03-27T06:01:09.307Z,86.9967
2023-03-27T06:02:11.423Z,86.9966
2023-03-27T06:03:13.704Z,86.9940
2023-03-27T06:04:16.068Z,86.9813
2023-03-27T06:05:18.163Z,86.9700
2023-03-27T06:06:20.321Z,86.9529
2023-03-27T06:07:22.599Z,86.9221
2023-03-27T06:08:24.919Z,86.8882
2023-03-27T06:09:26.988Z,86.8364
2023-03-27T06:10:29.119Z,86.7904
2023-03-27T06:11:31.208Z,86.7485
2023-03-27T06:12:33.426Z,86.7216
2023-03-27T06:13:35.532Z,86.7082
2023-03-27T06:14:37.637Z,86.6949
2023-03-27T06:15:39.778Z,86.6794
2023-03-27T06:16:41.885Z,86.6616
2023-03-27T06:17:44.182Z,86.6473
2023-03-27T06:18:46.176Z,86.6377
2023-03-27T06:19:48.288Z,86.6231
2023-03-27T06:20:50.376Z,86.6325
2023-03-27T06:21:52.494Z,86.6512
2023-03-27T06:23:56.498Z,86.7366
2023-03-27T06:24:58.565Z,86.8028
2023-03-27T06:26:00.680Z,86.8915
2023-03-27T06:27:02.725Z,86.9670
2023-03-27T06:28:04.923Z,87.0139
2023-03-27T06:29:08.176Z,87.0505
2023-03-27T06:30:10.981Z,87.0897
2023-03-27T06:31:13.090Z,87.1377
2023-03-27T06:32:15.183Z,87.1868
2023-03-27T06:33:17.413Z,87.2357
2023-03-27T06:34:19.506Z,87.2808
2023-03-27T06:35:21.609Z,87.3114
2023-03-27T06:37:25.627Z,87.3752
2023-03-27T06:38:27.722Z,87.4204
2023-03-27T06:39:29.791Z,87.4656
2023-03-27T06:40:31.801Z,87.5073
2023-03-27T06:41:33.861Z,87.5382
2023-03-27T06:42:35.983Z,87.5478
2023-03-27T06:43:38.076Z,87.5218
2023-03-27T06:45:42.091Z,87.4028
2023-03-27T06:46:45.958Z,87.3415
2023-03-27T06:47:54.338Z,87.2911
2023-03-27T06:49:53.803Z,87.2459
2023-03-27T06:50:56.221Z,87.2374
2023-03-27T06:51:58.506Z,87.2399
2023-03-27T06:53:00.712Z,87.2599
2023-03-27T06:54:02.805Z,87.2710
2023-03-27T06:55:04.914Z,87.2823
2023-03-27T06:56:06.980Z,87.2929
2023-03-27T06:57:09.120Z,87.3168
2023-03-27T06:58:11.152Z,87.3553
2023-03-27T07:00:15.254Z,87.4597
2023-03-27T07:01:17.301Z,87.5070
2023-03-27T07:02:19.433Z,87.5482
2023-03-27T07:03:21.550Z,87.5740
2023-03-27T07:04:23.662Z,87.5910
2023-03-27T07:05:25.741Z,87.6035
2023-03-27T07:06:27.855Z,87.6141
2023-03-27T07:07:29.925Z,87.5659
2023-03-27T07:09:33.965Z,87.4261
2023-03-27T07:10:36.031Z,87.3797
2023-03-27T07:11:38.138Z,87.3486
2023-03-27T07:12:40.214Z,87.3350
2023-03-27T07:13:42.332Z,87.3257
2023-03-27T07:14:44.498Z,87.3000
2023-03-27T07:15:46.558Z,87.2728
2023-03-27T07:16:48.689Z,87.2589
2023-03-27T07:17:50.799Z,87.2518
2023-03-27T07:18:52.930Z,87.2430
2023-03-27T07:19:54.978Z,87.2252
2023-03-27T07:20:57.240Z,87.2109
2023-03-27T07:21:59.474Z,87.2146
2023-03-27T07:23:01.610Z,87.2104
2023-03-27T07:24:03.933Z,87.1674
2023-03-27T07:25:06.288Z,87.1383
2023-03-27T07:26:08.555Z,87.0834
2023-03-27T07:27:10.862Z,87.0312
2023-03-27T07:28:13.113Z,87.0395
2023-03-27T07:29:15.455Z,87.0704
2023-03-27T07:30:17.712Z,87.0940
2023-03-27T07:31:35.151Z,87.0979
2023-03-27T07:32:36.246Z,87.1242
2023-03-27T07:34:29.757Z,87.1859
2023-03-27T07:35:32.134Z,87.1830
2023-03-27T07:36:34.426Z,87.1700
2023-03-27T07:37:38.012Z,87.1432
2023-03-27T07:38:40.617Z,87.1122
2023-03-27T07:39:42.879Z,87.1165
2023-03-27T07:40:45.195Z,87.1289
2023-03-27T07:41:47.479Z,87.1057
2023-03-27T07:42:49.752Z,87.0735
2023-03-27T07:43:52.080Z,87.0529
2023-03-27T07:44:54.335Z,87.0279
2023-03-27T07:45:56.829Z,87.0029
2023-03-27T07:49:04.458Z,86.9063
2023-03-27T07:51:13.723Z,86.7851
2023-03-27T07:52:13.771Z,86.7127
2023-03-27T07:53:33.632Z,86.6580
2023-03-27T07:54:17.039Z,86.6043
2023-03-27T07:55:19.351Z,86.5569
2023-03-27T07:56:21.633Z,86.5135
2023-03-27T07:57:23.898Z,86.4439
2023-03-27T07:58:26.416Z,86.3701
2023-03-27T07:59:28.952Z,86.2938
2023-03-27T08:00:31.382Z,86.1896
2023-03-27T08:01:33.864Z,86.0610
2023-03-27T08:02:36.222Z,85.9155
2023-03-27T08:03:38.525Z,85.7620
2023-03-27T08:05:43.025Z,85.5016
2023-03-27T08:06:45.303Z,85.3186
2023-03-27T08:08:49.751Z,85.0679
2023-03-27T08:09:52.008Z,84.9846
2023-03-27T08:10:54.341Z,84.8822
2023-03-27T08:11:56.707Z,84.7281
2023-03-27T08:12:58.974Z,84.5803
2023-03-27T08:14:01.290Z,84.4910
2023-03-27T08:15:03.576Z,84.4851
2023-03-27T08:16:05.887Z,84.4984
2023-03-27T08:17:15.746Z,84.5278
2023-03-27T08:18:12.073Z,84.5797
2023-03-27T08:19:14.380Z,84.6053
2023-03-27T08:20:16.733Z,84.6185
2023-03-27T08:21:19.051Z,84.5723
2023-03-27T08:22:21.270Z,84.4254
2023-03-27T08:23:23.557Z,84.1880
2023-03-27T08:24:25.827Z,84.0078
2023-03-27T08:25:28.104Z,83.9484
2023-03-27T08:26:30.473Z,83.9385
2023-03-27T08:27:32.769Z,83.9008
2023-03-27T08:28:34.974Z,83.9065
2023-03-27T08:29:37.264Z,83.9024
2023-03-27T08:30:39.581Z,83.8790
2023-03-27T08:31:41.856Z,83.8551
2023-03-27T08:32:44.223Z,83.8393
2023-03-27T08:33:46.566Z,83.7742
2023-03-27T08:34:48.865Z,83.6531
2023-03-27T08:35:51.215Z,83.4952
2023-03-27T08:36:53.630Z,83.3781
2023-03-27T08:37:55.944Z,83.2925
2023-03-27T08:41:02.567Z,82.8553
2023-03-27T08:42:04.913Z,82.7768
2023-03-27T08:43:07.222Z,82.7120
2023-03-27T08:44:09.475Z,82.6695
2023-03-27T08:45:11.754Z,82.6715
2023-03-27T08:50:22.603Z,82.3513
2023-03-27T08:51:24.865Z,82.2570
2023-03-27T08:52:27.172Z,82.2131
2023-03-27T08:53:29.585Z,82.1608
2023-03-27T08:54:31.898Z,82.0807
2023-03-27T08:55:34.230Z,81.9730
2023-03-27T08:56:36.559Z,81.8119
2023-03-27T08:57:38.899Z,81.7517
2023-03-27T08:58:41.241Z,81.7716
2023-03-27T08:59:43.473Z,81.8407
2023-03-27T09:00:45.775Z,81.8858
2023-03-27T09:01:48.077Z,81.7860
2023-03-27T09:02:50.432Z,81.5234
2023-03-27T09:03:52.842Z,81.2883
2023-03-27T09:04:55.126Z,81.1308
2023-03-27T09:06:59.578Z,80.9935
2023-03-27T09:08:01.950Z,80.9623
2023-03-27T09:09:04.203Z,80.9159
2023-03-27T09:11:08.692Z,80.9162
2023-03-27T09:13:13.139Z,80.9788
2023-03-27T09:14:15.501Z,81.0039
2023-03-27T09:15:17.805Z,81.0280
2023-03-27T09:16:20.151Z,81.0351
2023-03-27T09:17:22.383Z,80.9744
2023-03-27T09:18:24.664Z,80.8996
2023-03-27T09:19:26.978Z,80.7390
2023-03-27T09:20:29.272Z,80.5887
2023-03-27T09:21:31.563Z,80.5419
2023-03-27T09:22:33.895Z,80.4866
2023-03-27T09:23:36.156Z,80.3800
2023-03-27T09:24:38.420Z,80.2656
2023-03-27T09:25:40.761Z,80.1706
2023-03-27T09:26:43.063Z,80.0882
2023-03-27T09:27:45.289Z,79.9864
2023-03-27T09:28:48.981Z,79.7463
2023-03-27T09:29:51.330Z,79.3981
2023-03-27T09:30:55.125Z,79.0359
2023-03-27T09:31:57.367Z,78.8428
2023-03-27T09:32:59.731Z,78.7166
2023-03-27T09:34:02.561Z,78.6494
2023-03-27T09:35:04.911Z,78.4823
2023-03-27T09:36:07.219Z,78.2660
2023-03-27T09:37:09.512Z,78.0543
2023-03-27T09:38:11.778Z,77.8534
2023-03-27T09:39:14.111Z,77.6575
2023-03-27T09:40:16.487Z,77.4698
2023-03-27T09:41:18.795Z,77.2475
2023-03-27T09:42:21.068Z,77.0984
2023-03-27T09:43:24.542Z,77.0567
2023-03-27T09:44:27.156Z,77.0923
2023-03-27T09:45:29.478Z,77.1421
2023-03-27T09:46:31.843Z,77.1463
2023-03-27T09:47:34.144Z,77.1082
2023-03-27T09:48:36.409Z,77.0620
2023-03-27T09:49:38.736Z,77.0258
2023-03-27T09:50:41.028Z,76.9737
2023-03-27T09:51:43.383Z,76.8912
2023-03-27T09:52:45.659Z,76.8283
2023-03-27T09:53:47.946Z,76.7348
2023-03-27T09:54:50.264Z,76.6730
2023-03-27T09:55:52.591Z,76.5708
2023-03-27T09:56:54.855Z,76.4346
2023-03-27T09:57:57.193Z,76.3082
2023-03-27T09:58:59.475Z,76.2300
2023-03-27T10:00:01.754Z,76.1593
2023-03-27T10:01:04.043Z,76.0325
2023-03-27T10:03:08.672Z,75.7539
2023-03-27T10:04:10.972Z,75.4696
2023-03-27T10:05:13.256Z,75.2551
2023-03-27T10:06:15.538Z,75.1213
2023-03-27T10:07:17.859Z,75.0509
2023-03-27T10:08:20.109Z,74.9633
2023-03-27T10:09:22.403Z,74.8355
2023-03-27T10:10:24.644Z,74.6879
2023-03-27T10:11:26.937Z,74.5085
2023-03-27T10:12:29.201Z,74.3929
2023-03-27T10:13:31.501Z,74.2389
2023-03-27T10:14:33.740Z,74.0998
2023-03-27T10:15:35.995Z,74.0574
2023-03-27T10:16:38.332Z,73.9104
2023-03-27T10:18:42.757Z,73.6084
2023-03-27T10:19:44.983Z,73.4237
2023-03-27T10:20:47.319Z,73.2725
2023-03-27T10:21:49.638Z,73.1330
2023-03-27T10:22:53.352Z,73.0790
2023-03-27T10:23:52.660Z,73.0652
2023-03-27T10:24:54.912Z,73.0404
2023-03-27T10:25:57.209Z,72.9030
2023-03-27T10:26:59.449Z,72.8022
2023-03-27T10:28:01.730Z,72.7518
2023-03-27T10:29:04.004Z,72.6166
2023-03-27T10:31:08.397Z,72.1118
2023-03-27T10:32:10.708Z,71.9215
2023-03-27T10:33:13.005Z,71.6714
2023-03-27T10:34:15.271Z,71.3598
2023-03-27T10:35:17.570Z,71.0347
2023-03-27T10:37:21.954Z,70.5317
2023-03-27T10:38:24.294Z,70.4569
2023-03-27T10:39:26.525Z,70.2560
2023-03-27T10:40:28.768Z,70.0212
2023-03-27T10:41:31.072Z,69.8711
2023-03-27T10:42:33.407Z,69.7943
2023-03-27T10:43:35.668Z,69.7321
2023-03-27T10:44:37.949Z,69.6980
2023-03-27T10:46:42.333Z,69.6377
2023-03-27T10:47:44.638Z,69.5894
2023-03-27T10:48:46.916Z,69.5485
2023-03-27T10:50:51.277Z,69.3427
2023-03-27T10:51:53.518Z,69.2866
2023-03-27T10:52:55.816Z,69.3570
2023-03-27T10:53:58.196Z,69.4351
2023-03-27T10:55:00.486Z,69.4540
2023-03-27T10:56:02.848Z,69.4813
2023-03-27T10:57:05.135Z,69.5672
2023-03-27T10:58:07.452Z,69.6615
2023-03-27T10:59:09.696Z,69.5990
2023-03-27T11:01:14.086Z,69.3362
2023-03-27T11:02:16.413Z,69.3125
2023-03-27T11:03:18.719Z,69.3245
2023-03-27T11:04:21.075Z,69.2579
2023-03-27T11:05:23.312Z,69.2404
2023-03-27T11:07:27.793Z,69.0763
2023-03-27T11:08:30.054Z,68.9807
2023-03-27T11:09:32.347Z,69.0038
2023-03-27T11:10:34.670Z,68.9888
2023-03-27T11:11:36.928Z,68.9102
2023-03-27T11:12:39.221Z,68.8013
2023-03-27T11:13:41.517Z,68.6856
2023-03-27T11:14:43.740Z,68.5467
2023-03-27T11:15:46.067Z,68.4040
2023-03-27T11:16:48.352Z,68.1901
2023-03-27T11:17:50.987Z,67.9212
2023-03-27T11:18:53.268Z,67.6725
2023-03-27T11:19:55.594Z,67.3709
2023-03-27T11:20:57.922Z,67.0103
2023-03-27T11:22:00.267Z,66.5873
2023-03-27T11:23:02.548Z,66.3240
2023-03-27T11:24:04.810Z,66.3110
2023-03-27T11:25:07.123Z,66.3486
2023-03-27T11:26:09.392Z,66.3133
2023-03-27T11:27:13.302Z,66.2114
2023-03-27T11:28:12.513Z,66.0627
2023-03-27T11:29:14.737Z,65.9092
2023-03-27T11:30:16.998Z,65.7826
2023-03-27T11:31:19.336Z,65.7266
2023-03-27T11:32:21.630Z,65.6833
2023-03-27T11:33:23.896Z,65.5944
2023-03-27T11:34:29.136Z,65.6271
2023-03-27T11:35:27.377Z,65.6123
2023-03-27T11:36:29.682Z,65.5660
2023-03-27T11:37:31.968Z,65.5690
2023-03-27T11:38:34.188Z,65.6401
2023-03-27T11:39:36.530Z,65.7365
2023-03-27T11:40:38.750Z,65.8525
2023-03-27T11:41:41.028Z,66.0178
2023-03-27T11:42:43.282Z,66.1423
2023-03-27T11:45:49.837Z,65.6699
2023-03-27T11:46:52.122Z,65.5635
2023-03-27T11:49:58.680Z,65.4710
2023-03-27T11:51:00.982Z,65.4043
2023-03-27T11:52:03.219Z,65.2741
2023-03-27T11:53:05.489Z,64.8815
2023-03-27T11:54:07.802Z,64.2306
2023-03-27T11:55:10.125Z,63.8645
2023-03-27T11:56:12.387Z,63.6987
2023-03-27T11:57:14.706Z,63.6158
2023-03-27T11:58:16.941Z,63.5453
2023-03-27T11:59:19.194Z,63.5194
2023-03-27T12:00:21.498Z,63.4889
2023-03-27T12:01:23.752Z,63.5244
2023-03-27T12:02:26.081Z,63.5598
2023-03-27T12:03:28.523Z,63.4677
2023-03-27T12:04:30.871Z,63.3062
2023-03-27T12:05:33.147Z,63.0841
2023-03-27T12:06:35.387Z,62.7267
2023-03-27T12:07:40.426Z,62.4003
2023-03-27T12:08:41.949Z,62.3085
2023-03-27T12:09:44.898Z,62.3675
2023-03-27T12:10:47.152Z,62.4365
2023-03-27T12:11:49.474Z,62.4840
2023-03-27T12:12:51.753Z,62.4492
2023-03-27T12:14:00.955Z,62.0883
2023-03-27T12:14:57.700Z,61.4716
2023-03-27T12:15:59.994Z,61.0091
2023-03-27T12:17:02.382Z,60.8312
2023-03-27T12:18:04.630Z,60.9699
2023-03-27T12:19:17.366Z,61.1942
2023-03-27T12:20:10.622Z,61.4498
2023-03-27T12:23:18.747Z,61.4900
2023-03-27T12:24:20.998Z,61.3472
2023-03-27T12:26:25.487Z,61.1289
2023-03-27T12:27:27.795Z,61.2684
2023-03-27T12:28:30.046Z,61.4965
2023-03-27T12:29:32.353Z,61.7668
2023-03-27T12:30:34.666Z,61.9271
2023-03-27T12:33:42.796Z,61.8851
2023-03-27T12:34:45.038Z,61.9859
2023-03-27T12:35:47.452Z,62.0741
2023-03-27T12:36:49.723Z,62.0961
2023-03-27T12:37:52.080Z,62.0406
2023-03-27T12:38:54.366Z,61.8224
2023-03-27T12:39:56.764Z,61.5527
2023-03-27T12:40:59.138Z,61.5199
2023-03-27T12:42:01.608Z,61.6099
2023-03-27T12:43:03.882Z,61.7643
2023-03-27T12:44:06.190Z,61.9290
2023-03-27T12:45:08.481Z,61.9687
2023-03-27T12:48:15.078Z,62.2043
2023-03-27T12:49:17.356Z,62.2693
2023-03-27T12:51:21.813Z,62.0824
2023-03-27T12:52:24.124Z,61.3149
2023-03-27T12:53:26.368Z,60.7941
2023-03-27T12:54:29.644Z,60.7385
2023-03-27T12:55:32.023Z,59.9334
2023-03-27T12:56:34.421Z,59.5810
2023-03-27T12:57:36.943Z,59.3595
2023-03-27T12:58:39.364Z,59.3225
2023-03-27T12:59:41.661Z,59.2724
2023-03-27T13:00:43.938Z,59.4254
2023-03-27T13:01:52.288Z,59.5104
2023-03-27T13:02:50.202Z,59.6261
2023-03-27T13:04:54.642Z,59.9386
2023-03-27T13:05:56.930Z,60.0671
2023-03-27T13:06:59.194Z,59.8671
2023-03-27T13:08:01.458Z,59.7070
2023-03-27T13:09:03.800Z,59.6589
2023-03-27T13:12:10.377Z,59.6648
2023-03-27T13:13:12.667Z,59.6535
2023-03-27T13:14:14.929Z,59.6463
2023-03-27T13:15:17.254Z,59.7654
2023-03-27T13:16:19.632Z,59.8538
2023-03-27T13:20:28.376Z,59.9978
2023-03-27T13:21:30.712Z,59.9718
2023-03-27T13:22:37.090Z,59.6808
2023-03-27T13:23:35.277Z,59.5143
2023-03-27T13:24:37.581Z,59.6922
2023-03-27T13:25:39.854Z,59.9294
2023-03-27T13:26:42.133Z,60.2281
2023-03-27T13:27:44.479Z,60.4195
2023-03-27T13:28:47.022Z,60.5118
2023-03-27T13:29:49.288Z,60.5823
2023-03-27T13:30:51.602Z,60.5119
2023-03-27T13:31:53.918Z,60.4044
2023-03-27T13:32:56.160Z,60.3916
2023-03-27T13:33:58.465Z,60.4112
2023-03-27T13:35:00.825Z,60.6052
2023-03-27T13:36:03.128Z,60.4211
2023-03-27T13:37:06.634Z,59.8544
2023-03-27T13:38:09.680Z,59.7023
2023-03-27T13:39:11.952Z,59.6394
2023-03-27T13:40:14.218Z,59.3389
2023-03-27T13:42:18.547Z,58.2508
2023-03-27T13:43:20.795Z,57.7759
2023-03-27T13:44:23.094Z,57.3050
2023-03-27T13:45:25.336Z,57.0222
2023-03-27T13:46:27.583Z,56.7738
2023-03-27T13:47:29.819Z,56.2323
2023-03-27T13:48:31.992Z,55.3654
2023-03-27T13:49:34.188Z,54.3523
2023-03-27T13:50:36.391Z,53.8160
2023-03-27T13:51:38.646Z,53.5251
2023-03-27T13:52:40.886Z,52.8252